Time;durP1;ratioP1;P1;durP2;ratioP2;P2;SDS_P1;SDS_P2;PMS_P1;PMS_P2;Temp;Humidity;BMP_temperature;BMP_pressure;BME280_temperature;BME280_humidity;BME280_pressure;Samples;Min_cycle;Max_cycle;Signal;HPM_P1;HPM_P2
2023/02/15 00:01:18;;;;;;;0.60;0.60;;;;;;;7.77;100.00;102322.97;4949261;29;20035;-45
2023/02/15 00:03:43;;;;;;;0.40;0.40;;;;;;;7.81;100.00;102315.91;4948641;28;20127;-48
2023/02/15 00:06:08;;;;;;;1.33;1.23;;;;;;;7.82;100.00;102314.84;4948851;29;20406;-52
2023/02/15 00:08:34;;;;;;;1.13;1.13;;;;;;;7.55;100.00;102318.22;4948454;28;20756;-45
2023/02/15 00:11:05;;;;;;;0.30;0.30;;;;;;;7.69;100.00;102320.94;4915814;29;20031;-48
2023/02/15 00:13:30;;;;;;;0.60;0.60;;;;;;;7.42;100.00;102320.84;4948266;28;20031;-47
2023/02/15 00:16:01;;;;;;;0.85;0.85;;;;;;;7.46;100.00;102313.81;4945879;28;20039;-50
2023/02/15 00:18:27;;;;;;;0.25;0.25;;;;;;;7.64;100.00;102313.81;4947362;29;20083;-53
2023/02/15 00:20:52;;;;;;;0.73;0.73;;;;;;;7.57;100.00;102307.22;4941092;28;20031;-46
2023/02/15 00:23:18;;;;;;;0.82;0.43;;;;;;;7.43;100.00;102311.75;4946900;28;20031;-46
2023/02/15 00:25:43;;;;;;;0.63;0.63;;;;;;;7.56;100.00;102308.31;4949816;28;20565;-50
2023/02/15 00:28:09;;;;;;;0.82;0.80;;;;;;;7.68;100.00;102316.69;4947467;28;20090;-46
2023/02/15 00:30:34;;;;;;;0.35;0.35;;;;;;;7.57;100.00;102304.56;4946922;29;20034;-49
2023/02/15 00:33:00;;;;;;;0.40;0.40;;;;;;;7.57;100.00;102307.22;4950772;28;20093;-48
2023/02/15 00:35:25;;;;;;;2.33;1.08;;;;;;;7.38;100.00;102301.88;4949758;28;20027;-45
2023/02/15 00:37:52;;;;;;;0.50;0.50;;;;;;;7.46;100.00;102305.78;4948601;28;20035;-45
2023/02/15 00:40:18;;;;;;;0.52;0.52;;;;;;;7.19;100.00;102296.56;4932866;29;20482;-46
2023/02/15 00:42:44;;;;;;;0.50;0.50;;;;;;;7.20;100.00;102303.50;4946833;28;20371;-47
2023/02/15 00:45:09;;;;;;;0.38;0.38;;;;;;;7.31;100.00;102290.75;4945339;28;20035;-47
2023/02/15 00:47:34;;;;;;;0.57;0.57;;;;;;;7.40;100.00;102290.88;4950339;28;20034;-48
2023/02/15 00:50:00;;;;;;;0.60;0.60;;;;;;;7.44;100.00;102291.88;4949748;28;20114;-46
2023/02/15 00:52:25;;;;;;;1.65;1.27;;;;;;;7.50;100.00;102288.03;4948489;28;20039;-48
2023/02/15 00:54:51;;;;;;;0.40;0.40;;;;;;;7.55;100.00;102287.97;4944020;28;20024;-50
2023/02/15 00:57:16;;;;;;;0.50;0.50;;;;;;;7.44;100.00;102281.16;4950205;28;20498;-46
2023/02/15 00:59:42;;;;;;;0.63;0.63;;;;;;;7.65;100.00;102288.56;4948020;28;20486;-45
2023/02/15 01:02:07;;;;;;;0.20;0.20;;;;;;;7.38;100.00;102271.59;4948843;28;20042;-46
2023/02/15 01:04:33;;;;;;;0.20;0.20;;;;;;;7.23;100.00;102278.03;4947939;28;20042;-46
2023/02/15 01:06:58;;;;;;;0.90;0.82;;;;;;;7.23;100.00;102278.81;4930066;29;20043;-46
2023/02/15 01:09:24;;;;;;;0.40;0.40;;;;;;;7.34;100.00;102276.00;4934550;29;20089;-50
2023/02/15 01:11:49;;;;;;;0.50;0.50;;;;;;;7.34;100.00;102276.75;4950002;29;20072;-50
2023/02/15 01:14:14;;;;;;;0.80;0.80;;;;;;;7.23;100.00;102268.09;4945867;28;20042;-45
2023/02/15 01:16:40;;;;;;;0.20;0.20;;;;;;;7.42;100.00;102281.47;4948632;28;20104;-45
2023/02/15 01:19:06;;;;;;;0.30;0.30;;;;;;;7.47;100.00;102264.50;4946677;28;20614;-46
2023/02/15 01:21:34;;;;;;;0.20;0.20;;;;;;;7.50;100.00;102267.41;4950588;28;20114;-48
2023/02/15 01:24:00;;;;;;;0.20;0.20;;;;;;;7.65;100.00;102267.13;4949886;28;20031;-47
2023/02/15 01:26:26;;;;;;;0.75;0.75;;;;;;;7.26;100.00;102262.16;4946952;28;20035;-53
2023/02/15 01:28:52;;;;;;;0.20;0.20;;;;;;;7.25;100.00;102257.09;4946738;28;20150;-48
2023/02/15 01:31:19;;;;;;;0.40;0.40;;;;;;;7.26;100.00;102262.16;4932945;29;20125;-44
2023/02/15 01:33:45;;;;;;;0.20;0.20;;;;;;;7.37;100.00;102252.06;4947994;28;20031;-52
2023/02/15 01:36:11;;;;;;;0.68;0.68;;;;;;;7.39;100.00;102251.78;4948727;28;20039;-46
2023/02/15 01:38:39;;;;;;;0.40;0.40;;;;;;;7.31;100.00;102247.88;4943548;29;20031;-48
2023/02/15 01:41:22;;;;;;;0.20;0.20;;;;;;;7.35;100.00;102256.13;4950644;28;20035;-47
2023/02/15 01:43:59;;;;;;;0.40;0.40;;;;;;;7.40;100.00;102245.31;4950787;28;20043;-49
2023/02/15 01:46:36;;;;;;;0.40;0.40;;;;;;;7.00;100.00;102242.22;4953494;28;20127;-46
2023/02/15 01:49:11;;;;;;;0.38;0.38;;;;;;;6.68;100.00;102242.13;4949684;29;20039;-44
2023/02/15 01:51:39;;;;;;;0.30;0.30;;;;;;;6.73;100.00;102233.25;4953587;29;20043;-48
2023/02/15 01:54:11;;;;;;;0.20;0.20;;;;;;;6.99;100.00;102242.50;4950531;28;20101;-49
2023/02/15 01:56:39;;;;;;;0.52;0.52;;;;;;;6.91;100.00;102230.56;4950337;29;20042;-47
2023/02/15 01:59:11;;;;;;;0.43;0.43;;;;;;;7.03;100.00;102230.91;4951235;28;20122;-51
2023/02/15 02:01:38;;;;;;;0.40;0.40;;;;;;;7.00;100.00;102234.19;4953092;29;20652;-46
2023/02/15 02:04:15;;;;;;;0.57;0.57;;;;;;;7.11;100.00;102229.44;4947690;28;20046;-49
2023/02/15 02:06:41;;;;;;;0.80;0.80;;;;;;;7.16;100.00;102232.06;4948846;29;20047;-47
2023/02/15 02:09:07;;;;;;;0.57;0.50;;;;;;;7.24;100.00;102229.50;4949214;28;20047;-48
2023/02/15 02:11:34;;;;;;;0.35;0.35;;;;;;;7.20;100.00;102228.50;4948334;28;20039;-45
2023/02/15 02:14:00;;;;;;;0.75;0.40;;;;;;;7.14;100.00;102224.28;4944772;28;20042;-46
2023/02/15 02:16:38;;;;;;;0.30;0.30;;;;;;;7.11;100.00;102230.25;4951500;28;20023;-47
2023/02/15 02:19:19;;;;;;;0.40;0.40;;;;;;;7.08;100.00;102222.00;4934322;29;20067;-52
2023/02/15 02:22:10;;;;;;;0.98;0.95;;;;;;;6.99;100.00;102213.03;4952013;28;20062;-45
2023/02/15 02:24:56;;;;;;;;;;;;;;;6.96;100.00;102206.41;4930329;28;20090;-48
2023/02/15 02:27:30;;;;;;;0.20;0.20;;;;;;;7.08;100.00;102209.38;4950834;28;20014;-45
2023/02/15 02:30:14;;;;;;;0.20;0.20;;;;;;;7.15;100.00;102212.50;4950637;28;20049;-49
2023/02/15 02:32:55;;;;;;;0.73;0.73;;;;;;;7.21;100.00;102208.66;4953832;28;20398;-51
2023/02/15 02:35:30;;;;;;;0.38;0.38;;;;;;;7.17;100.00;102202.31;4952497;29;20039;-45
2023/02/15 02:38:18;;;;;;;0.43;0.43;;;;;;;7.12;100.00;102201.59;4951826;28;20117;-45
2023/02/15 02:41:05;;;;;;;0.40;0.40;;;;;;;6.96;100.00;102193.00;4953243;28;20039;-45
2023/02/15 02:43:45;;;;;;;0.30;0.30;;;;;;;6.97;100.00;102191.91;4949860;28;20082;-45
2023/02/15 02:46:20;;;;;;;0.20;0.20;;;;;;;6.86;100.00;102177.09;4924329;29;20455;-50
2023/02/15 02:48:48;;;;;;;0.50;0.50;;;;;;;6.48;100.00;102175.53;4931299;28;20038;-47
2023/02/15 02:51:20;;;;;;;0.30;0.30;;;;;;;6.60;100.00;102181.22;4948389;29;20803;-46
2023/02/15 02:53:45;;;;;;;0.68;0.68;;;;;;;6.44;100.00;102182.56;4937529;28;20388;-48
2023/02/15 02:56:23;;;;;;;0.20;0.20;;;;;;;6.57;100.00;102176.47;4946713;29;20086;-45
2023/02/15 02:58:58;;;;;;;0.40;0.40;;;;;;;6.71;100.00;102171.97;4950658;28;20506;-46
2023/02/15 03:01:33;;;;;;;0.20;0.20;;;;;;;6.55;100.00;102169.81;4950907;28;20490;-49
2023/02/15 03:04:05;;;;;;;1.00;0.40;;;;;;;6.63;100.00;102172.63;4948093;29;20050;-47
2023/02/15 03:06:33;;;;;;;0.30;0.30;;;;;;;6.69;100.00;102178.69;4930720;29;20035;-47
2023/02/15 03:09:16;;;;;;;0.45;0.45;;;;;;;6.58;100.00;102171.91;4951794;28;20037;-47
2023/02/15 03:11:44;;;;;;;0.55;0.45;;;;;;;6.50;100.00;102173.38;4946919;28;20144;-48
2023/02/15 03:14:13;;;;;;;0.30;0.30;;;;;;;6.41;100.00;102169.72;4947575;29;20487;-47
2023/02/15 03:16:42;;;;;;;0.35;0.35;;;;;;;6.53;100.00;102169.31;4952262;29;20031;-47
2023/02/15 03:19:15;;;;;;;0.57;0.57;;;;;;;6.69;100.00;102162.66;4950904;28;20027;-48
2023/02/15 03:21:42;;;;;;;0.52;0.52;;;;;;;6.14;100.00;102159.66;4946978;28;20470;-50
2023/02/15 03:24:13;;;;;;;0.38;0.38;;;;;;;6.31;100.00;102145.78;4951369;28;20031;-52
2023/02/15 03:26:42;;;;;;;0.20;0.20;;;;;;;6.27;100.00;102145.56;4930132;29;20078;-49
2023/02/15 03:29:10;;;;;;;0.50;0.50;;;;;;;6.21;100.00;102140.59;4948666;28;20090;-50
2023/02/15 03:31:42;;;;;;;0.20;0.20;;;;;;;6.22;100.00;102139.50;4931905;28;20078;-54
2023/02/15 03:34:11;;;;;;;0.43;0.43;;;;;;;6.04;100.00;102140.31;4950183;28;20408;-48
2023/02/15 03:36:45;;;;;;;0.30;0.30;;;;;;;6.01;100.00;102139.00;4951328;28;20121;-50
2023/02/15 03:39:29;;;;;;;0.40;0.40;;;;;;;6.19;100.00;102132.84;4950949;28;20042;-50
2023/02/15 03:42:11;;;;;;;0.28;0.28;;;;;;;6.24;100.00;102129.31;4951151;29;20368;-47
2023/02/15 03:44:49;;;;;;;0.20;0.20;;;;;;;6.13;100.00;102134.03;4943684;28;20750;-47
2023/02/15 03:47:23;;;;;;;0.20;0.20;;;;;;;6.10;100.00;102139.13;4950367;28;20391;-49
2023/02/15 03:49:55;;;;;;;0.30;0.30;;;;;;;6.15;100.00;102125.72;4945326;28;20039;-50
2023/02/15 03:52:25;;;;;;;0.30;0.30;;;;;;;5.76;100.00;102125.91;4945420;28;20402;-48
2023/02/15 03:54:51;;;;;;;0.30;0.30;;;;;;;6.05;100.00;102134.66;4950427;29;20094;-47
2023/02/15 04:03:14;;;;;;;0.30;0.30;;;;;;;6.20;100.00;102123.75;4950620;28;20110;-47
2023/02/15 04:05:41;;;;;;;0.60;0.60;;;;;;;6.25;100.00;102134.38;4950511;28;20133;-50
2023/02/15 04:08:07;;;;;;;0.63;0.63;;;;;;;6.36;100.00;102130.50;4948166;29;20075;-49
2023/02/15 04:13:21;;;;;;;0.35;0.35;;;;;;;6.14;100.00;102116.09;4948251;28;20039;-49
2023/02/15 04:16:04;;;;;;;0.20;0.20;;;;;;;6.20;100.00;102113.06;4947269;29;20085;-46
2023/02/15 04:26:53;;;;;;;0.20;0.20;;;;;;;5.93;100.00;102110.22;4942464;28;20043;-54
2023/02/15 04:29:23;;;;;;;0.25;0.25;;;;;;;6.17;100.00;102110.16;4947294;29;20093;-48
2023/02/15 04:31:50;;;;;;;0.20;0.20;;;;;;;6.23;100.00;102103.66;4948130;28;20838;-50
2023/02/15 04:34:16;;;;;;;0.30;0.30;;;;;;;6.17;100.00;102104.81;4948998;28;20074;-51
2023/02/15 04:36:42;;;;;;;0.20;0.20;;;;;;;6.05;100.00;102109.78;4949186;28;20058;-48
2023/02/15 04:39:08;;;;;;;0.30;0.30;;;;;;;5.94;100.00;102113.69;4948590;29;20054;-47
2023/02/15 04:41:34;;;;;;;0.20;0.20;;;;;;;5.76;100.00;102104.53;4947771;29;20478;-48
2023/02/15 04:44:01;;;;;;;0.63;0.63;;;;;;;5.80;100.00;102113.56;4947610;28;20082;-48
2023/02/15 04:46:27;;;;;;;0.63;0.63;;;;;;;5.34;100.00;102110.59;4948735;29;20458;-50
2023/02/15 04:48:54;;;;;;;0.20;0.20;;;;;;;5.30;100.00;102106.91;4949185;28;20061;-52
2023/02/15 04:51:20;;;;;;;0.32;0.32;;;;;;;5.46;100.00;102100.34;4947130;28;20050;-49
2023/02/15 04:53:45;;;;;;;0.35;0.35;;;;;;;5.66;100.00;102103.84;4944313;29;20534;-47
2023/02/15 04:56:11;;;;;;;0.40;0.40;;;;;;;5.60;100.00;102096.97;4950005;29;20102;-49
2023/02/15 04:58:40;;;;;;;0.47;0.47;;;;;;;5.48;100.00;102092.84;4944806;28;20055;-52
2023/02/15 05:01:07;;;;;;;0.55;0.55;;;;;;;5.60;100.00;102094.28;4947822;28;20035;-51
2023/02/15 05:03:32;;;;;;;0.20;0.20;;;;;;;5.55;100.00;102089.84;4943393;28;20090;-51
2023/02/15 05:05:58;;;;;;;0.30;0.30;;;;;;;5.72;100.00;102094.69;4948611;29;20047;-49
2023/02/15 05:08:23;;;;;;;0.38;0.38;;;;;;;5.87;100.00;102081.97;4948516;29;20039;-51
2023/02/15 05:10:49;;;;;;;0.65;0.65;;;;;;;5.55;100.00;102084.50;4946536;28;20087;-51
2023/02/15 05:13:15;;;;;;;0.20;0.20;;;;;;;5.69;100.00;102079.25;4948570;28;20071;-49
2023/02/15 05:15:41;;;;;;;0.40;0.40;;;;;;;5.59;100.00;102074.03;4948754;28;20506;-48
2023/02/15 05:18:07;;;;;;;0.30;0.30;;;;;;;5.70;100.00;102078.16;4946968;28;20066;-49
2023/02/15 05:20:33;;;;;;;0.60;0.60;;;;;;;5.76;100.00;102077.81;4950295;28;20043;-46
2023/02/15 05:22:59;;;;;;;0.28;0.28;;;;;;;5.72;100.00;102079.47;4946766;28;20038;-50
2023/02/15 05:28:20;;;;;;;0.30;0.30;;;;;;;5.55;100.00;102064.97;4948462;29;20046;-52
2023/02/15 05:31:08;;;;;;;0.63;0.63;;;;;;;5.49;99.63;102058.91;4948600;28;20109;-50
2023/02/15 05:33:34;;;;;;;0.30;0.30;;;;;;;5.45;100.00;102064.03;4949346;28;20070;-52
2023/02/15 05:35:59;;;;;;;0.30;0.30;;;;;;;5.45;99.89;102058.69;4946551;29;20063;-51
2023/02/15 05:38:25;;;;;;;0.30;0.30;;;;;;;5.63;98.89;102069.69;4949135;28;20528;-51
2023/02/15 05:40:51;;;;;;;0.20;0.20;;;;;;;5.54;99.43;102074.88;4951466;28;20039;-51
2023/02/15 05:43:17;;;;;;;0.43;0.43;;;;;;;5.46;98.86;102062.94;4952680;28;20040;-49
2023/02/15 05:45:46;;;;;;;0.47;0.43;;;;;;;5.30;100.00;102064.19;4950088;28;20063;-52
2023/02/15 05:48:12;;;;;;;0.40;0.40;;;;;;;5.33;99.72;102063.63;4945056;28;20043;-47
2023/02/15 05:50:37;;;;;;;0.45;0.45;;;;;;;5.21;100.00;102057.88;4932891;28;20094;-47
2023/02/15 05:53:03;;;;;;;0.85;0.68;;;;;;;5.20;100.00;102061.66;4940181;28;20439;-47
2023/02/15 05:55:28;;;;;;;0.50;0.50;;;;;;;5.19;100.00;102062.72;4933557;28;20031;-52
2023/02/15 05:57:54;;;;;;;0.30;0.30;;;;;;;5.11;100.00;102055.31;4933581;28;20054;-50
2023/02/15 06:00:19;;;;;;;0.20;0.20;;;;;;;4.99;100.00;102060.28;4936936;28;20039;-50
2023/02/15 06:02:45;;;;;;;0.30;0.30;;;;;;;5.11;100.00;102058.00;4947342;28;20039;-46
2023/02/15 06:05:10;;;;;;;0.20;0.20;;;;;;;5.08;100.00;102050.56;4945938;28;20118;-46
2023/02/15 06:07:36;;;;;;;0.85;0.85;;;;;;;5.19;100.00;102059.25;4946973;28;20031;-46
2023/02/15 06:10:02;;;;;;;0.30;0.30;;;;;;;5.10;99.97;102051.06;4946719;28;20062;-48
2023/02/15 06:12:27;;;;;;;0.30;0.30;;;;;;;5.16;100.00;102046.47;4935955;28;20031;-52
2023/02/15 06:14:53;;;;;;;0.65;0.65;;;;;;;5.07;100.00;102045.50;4950641;28;20371;-49
2023/02/15 06:17:18;;;;;;;0.32;0.32;;;;;;;5.04;100.00;102044.19;4948104;28;20512;-48
2023/02/15 06:19:44;;;;;;;1.08;0.55;;;;;;;5.20;100.00;102045.63;4949456;28;20031;-49
2023/02/15 06:22:09;;;;;;;0.30;0.30;;;;;;;5.30;100.00;102042.06;4943319;28;20032;-48
2023/02/15 06:24:34;;;;;;;0.28;0.28;;;;;;;5.33;99.91;102039.59;4946655;28;20073;-51
2023/02/15 06:27:00;;;;;;;0.40;0.40;;;;;;;5.03;100.00;102033.81;4947016;28;20045;-47
2023/02/15 06:29:25;;;;;;;0.75;0.75;;;;;;;5.15;100.00;102047.56;4944535;28;20031;-53
2023/02/15 06:31:51;;;;;;;0.40;0.40;;;;;;;5.17;100.00;102045.38;4946456;28;20108;-47
2023/02/15 06:34:16;;;;;;;0.30;0.30;;;;;;;4.95;98.75;102051.25;4951016;28;20031;-50
2023/02/15 06:36:42;;;;;;;0.38;0.38;;;;;;;4.80;100.00;102046.03;4948116;28;20058;-49
2023/02/15 06:39:08;;;;;;;0.20;0.20;;;;;;;4.95;99.51;102048.56;4947920;28;20530;-46
2023/02/15 06:41:33;;;;;;;0.52;0.52;;;;;;;4.77;99.83;102051.94;4949069;28;20062;-51
2023/02/15 06:43:59;;;;;;;0.20;0.20;;;;;;;4.81;100.00;102052.97;4932283;29;20034;-50
2023/02/15 06:46:24;;;;;;;0.30;0.30;;;;;;;4.54;100.00;102048.13;4941447;28;20119;-54
2023/02/15 06:48:50;;;;;;;0.25;0.25;;;;;;;4.56;100.00;102062.00;4951587;28;20039;-47
2023/02/15 06:51:15;;;;;;;0.43;0.43;;;;;;;4.72;100.00;102054.66;4946404;29;20063;-48
2023/02/15 06:53:42;;;;;;;0.63;0.63;;;;;;;4.79;100.00;102048.97;4949784;28;20035;-48
2023/02/15 06:56:09;;;;;;;0.30;0.30;;;;;;;4.68;100.00;102058.97;4948698;29;20058;-51
2023/02/15 06:58:45;;;;;;;0.47;0.47;;;;;;;4.69;100.00;102060.53;4945859;29;20448;-52
2023/02/15 07:01:11;;;;;;;0.20;0.20;;;;;;;4.62;100.00;102059.28;4949297;29;20039;-52
2023/02/15 07:03:37;;;;;;;0.30;0.30;;;;;;;4.64;100.00;102052.59;4950273;28;20038;-54
2023/02/15 07:06:07;;;;;;;0.30;0.30;;;;;;;4.71;100.00;102058.38;4948809;29;20043;-47
2023/02/15 07:08:34;;;;;;;0.30;0.30;;;;;;;4.56;100.00;102050.53;4944400;29;20031;-49
2023/02/15 07:12:40;;;;;;;0.30;0.30;;;;;;;4.55;100.00;102057.72;4951700;29;20081;-51
2023/02/15 07:13:46;;;;;;;0.20;0.20;;;;;;;4.63;100.00;102044.88;4947048;28;20082;-50
2023/02/15 07:16:12;;;;;;;0.30;0.30;;;;;;;4.71;100.00;102045.03;4947487;29;20023;-49
2023/02/15 07:18:38;;;;;;;0.20;0.20;;;;;;;4.91;100.00;102041.41;4949042;29;20042;-51
2023/02/15 07:21:07;;;;;;;0.50;0.50;;;;;;;4.78;100.00;102040.16;4946996;29;20399;-49
2023/02/15 07:23:37;;;;;;;0.30;0.30;;;;;;;4.85;100.00;102035.31;4947261;28;20575;-47
2023/02/15 07:26:04;;;;;;;0.20;0.20;;;;;;;5.00;100.00;102037.81;4948849;28;20103;-50
2023/02/15 07:28:30;;;;;;;0.47;0.47;;;;;;;4.58;100.00;102041.19;4946995;29;20046;-52
2023/02/15 07:30:55;;;;;;;0.35;0.35;;;;;;;4.66;100.00;102029.09;4948109;28;20041;-50
2023/02/15 07:33:23;;;;;;;0.32;0.32;;;;;;;4.51;100.00;102023.88;4949455;28;20038;-50
2023/02/15 07:35:51;;;;;;;0.30;0.30;;;;;;;4.58;100.00;102022.50;4950497;28;20031;-49
2023/02/15 07:38:17;;;;;;;0.25;0.25;;;;;;;4.38;100.00;102013.88;4949582;28;20122;-51
2023/02/15 07:40:43;;;;;;;0.20;0.20;;;;;;;4.60;100.00;102022.22;4946203;28;20041;-52
2023/02/15 07:43:08;;;;;;;0.22;0.22;;;;;;;4.79;100.00;102028.44;4938932;28;20035;-46
2023/02/15 07:45:34;;;;;;;0.63;0.63;;;;;;;4.79;100.00;102023.09;4944133;28;20101;-47
2023/02/15 07:48:03;;;;;;;0.20;0.20;;;;;;;4.59;100.00;102017.94;4938543;28;20027;-50
2023/02/15 07:50:30;;;;;;;0.30;0.30;;;;;;;4.33;100.00;102016.59;4940165;28;20043;-49
2023/02/15 07:52:55;;;;;;;0.45;0.45;;;;;;;4.09;100.00;102005.84;4907495;29;20086;-47
2023/02/15 07:55:21;;;;;;;0.90;0.60;;;;;;;4.11;100.00;102011.69;4945291;29;20031;-47
2023/02/15 07:57:48;;;;;;;0.20;0.20;;;;;;;4.26;100.00;102008.91;4945438;28;20038;-47
2023/02/15 08:00:15;;;;;;;0.47;0.47;;;;;;;4.42;100.00;102007.69;4943714;28;20402;-52
2023/02/15 08:02:41;;;;;;;0.30;0.30;;;;;;;4.47;100.00;102001.53;4945124;28;20054;-50
2023/02/15 08:05:07;;;;;;;0.20;0.20;;;;;;;4.45;100.00;101999.13;4948064;28;20054;-52
2023/02/15 08:07:33;;;;;;;0.50;0.50;;;;;;;4.69;100.00;102001.84;4938464;28;20047;-52
2023/02/15 08:09:59;;;;;;;0.20;0.20;;;;;;;4.69;100.00;102017.06;4911298;29;20487;-49
2023/02/15 08:12:27;;;;;;;0.38;0.38;;;;;;;4.42;100.00;102004.22;4947451;28;20035;-46
2023/02/15 08:14:53;;;;;;;0.50;0.50;;;;;;;4.46;100.00;101998.06;4947150;28;20173;-47
2023/02/15 08:17:18;;;;;;;0.40;0.40;;;;;;;4.52;100.00;101999.63;4933898;28;21033;-48
2023/02/15 08:19:44;;;;;;;0.75;0.75;;;;;;;4.55;100.00;102003.56;4944864;28;20035;-47
2023/02/15 08:22:12;;;;;;;0.22;0.22;;;;;;;4.51;100.00;101997.22;4941371;28;20061;-51
2023/02/15 08:24:38;;;;;;;0.55;0.55;;;;;;;4.52;100.00;101996.94;4946848;28;20494;-51
2023/02/15 08:27:05;;;;;;;0.30;0.30;;;;;;;4.51;100.00;101998.00;4942921;28;20090;-51
2023/02/15 08:29:31;;;;;;;0.43;0.43;;;;;;;4.64;100.00;101999.25;4937004;28;20074;-47
2023/02/15 08:32:02;;;;;;;0.30;0.30;;;;;;;4.48;100.00;101993.25;4944193;28;20628;-48
2023/02/15 08:34:29;;;;;;;0.30;0.30;;;;;;;4.68;100.00;101994.94;4937751;28;20034;-49
2023/02/15 08:36:55;;;;;;;0.30;0.30;;;;;;;4.69;100.00;101990.38;4937346;28;20042;-51
2023/02/15 08:39:21;;;;;;;0.30;0.30;;;;;;;4.49;100.00;101994.81;4919709;28;20541;-51
2023/02/15 08:41:47;;;;;;;0.30;0.30;;;;;;;4.59;100.00;102001.94;4945935;28;20066;-49
2023/02/15 08:44:15;;;;;;;0.50;0.50;;;;;;;4.51;100.00;102005.22;4936388;28;20046;-50
2023/02/15 08:46:42;;;;;;;0.30;0.30;;;;;;;4.58;100.00;101997.69;4943599;28;20499;-50
2023/02/15 08:49:09;;;;;;;0.20;0.20;;;;;;;4.26;100.00;101984.91;4946695;28;20581;-47
2023/02/15 08:51:38;;;;;;;0.65;0.65;;;;;;;4.24;100.00;101989.72;4946357;28;20486;-49
2023/02/15 08:54:06;;;;;;;0.20;0.20;;;;;;;4.14;100.00;101979.13;4941257;28;20125;-47
2023/02/15 08:56:35;;;;;;;0.20;0.20;;;;;;;4.29;100.00;101976.38;4946814;28;20058;-50
2023/02/15 08:59:01;;;;;;;0.25;0.25;;;;;;;3.99;100.00;101981.13;4928373;28;20692;-47
2023/02/15 09:01:29;;;;;;;0.30;0.30;;;;;;;4.33;100.00;101977.41;4949725;28;20043;-47
2023/02/15 09:03:57;;;;;;;0.40;0.40;;;;;;;4.19;100.00;101972.97;4948616;28;20037;-48
2023/02/15 09:06:24;;;;;;;0.30;0.30;;;;;;;4.17;100.00;101969.78;4948736;28;20570;-50
2023/02/15 09:08:50;;;;;;;0.30;0.30;;;;;;;4.29;100.00;101975.56;4946186;28;20043;-46
2023/02/15 09:11:22;;;;;;;0.25;0.25;;;;;;;4.44;100.00;101970.09;4945068;28;20058;-47
2023/02/15 09:13:49;;;;;;;0.30;0.30;;;;;;;4.50;100.00;101974.31;4951005;28;20082;-51
2023/02/15 09:16:16;;;;;;;0.40;0.40;;;;;;;4.75;100.00;101975.91;4952799;28;20131;-48
2023/02/15 09:18:42;;;;;;;0.30;0.30;;;;;;;4.80;100.00;101965.22;4951778;28;20039;-52
2023/02/15 09:21:13;;;;;;;0.50;0.50;;;;;;;4.79;100.00;101968.94;4946897;28;20078;-50
2023/02/15 09:23:39;;;;;;;0.30;0.30;;;;;;;4.74;100.00;101964.47;4947777;28;20039;-48
2023/02/15 09:26:10;;;;;;;0.30;0.30;;;;;;;4.87;100.00;101971.78;4953192;28;20398;-48
2023/02/15 09:28:36;;;;;;;0.43;0.43;;;;;;;4.79;100.00;101975.06;4955071;28;20035;-50
2023/02/15 09:31:14;;;;;;;0.20;0.20;;;;;;;4.68;100.00;101978.13;4950395;28;20035;-48
2023/02/15 09:33:41;;;;;;;0.60;0.60;;;;;;;4.88;100.00;101981.38;4956152;28;20039;-51
2023/02/15 09:36:16;;;;;;;0.30;0.30;;;;;;;4.92;100.00;101977.06;4950362;28;20035;-52
2023/02/15 09:38:42;;;;;;;0.20;0.20;;;;;;;4.67;100.00;101966.66;4945044;28;20466;-54
2023/02/15 09:41:41;;;;;;;0.30;0.30;;;;;;;4.58;100.00;101968.34;4947203;28;20676;-56
2023/02/15 09:44:25;;;;;;;0.30;0.30;;;;;;;4.64;100.00;101969.91;4948366;28;22242;-51
2023/02/15 09:47:02;;;;;;;0.30;0.30;;;;;;;4.66;100.00;101962.41;4941057;28;20143;-51
2023/02/15 09:49:34;;;;;;;0.30;0.30;;;;;;;4.89;100.00;101963.50;4977711;23;20054;-59
2023/02/15 09:51:59;;;;;;;0.40;0.40;;;;;;;5.04;100.00;101965.97;5005985;28;20050;-58
2023/02/15 09:54:45;;;;;;;0.50;0.50;;;;;;;5.05;100.00;101959.59;4999079;28;20049;-57
2023/02/15 09:57:21;;;;;;;0.30;0.30;;;;;;;4.69;99.22;101961.84;4971099;28;20049;-55
2023/02/15 09:59:52;;;;;;;0.30;0.30;;;;;;;4.91;100.00;101959.47;4991959;28;20076;-58
2023/02/15 10:02:36;;;;;;;0.30;0.30;;;;;;;4.90;100.00;101960.53;5002664;28;20034;-55
2023/02/15 10:05:24;;;;;;;0.30;0.30;;;;;;;5.11;100.00;101969.13;5005688;28;20357;-56
2023/02/15 10:07:49;;;;;;;0.38;0.38;;;;;;;5.00;100.00;101967.63;5007318;28;20075;-57
2023/02/15 10:10:30;;;;;;;0.50;0.50;;;;;;;5.10;100.00;101970.19;5002562;28;20178;-58
2023/02/15 10:13:18;;;;;;;0.30;0.30;;;;;;;5.25;100.00;101970.00;4998438;28;20141;-59
2023/02/15 10:15:51;;;;;;;0.55;0.55;;;;;;;5.54;100.00;101965.34;5000537;28;20034;-59
2023/02/15 10:18:23;;;;;;;0.25;0.25;;;;;;;5.64;100.00;101975.09;4998293;28;20038;-55
2023/02/15 10:21:15;;;;;;;0.60;0.60;;;;;;;4.84;100.00;101977.69;5002151;28;20113;-58
2023/02/15 10:24:05;;;;;;;0.25;0.25;;;;;;;4.89;100.00;101968.84;5003269;28;20080;-59
2023/02/15 10:26:47;;;;;;;1.15;1.05;;;;;;;5.15;100.00;101981.59;5001859;28;20033;-55
2023/02/15 10:29:36;;;;;;;0.30;0.30;;;;;;;5.45;100.00;101967.06;5000773;28;20038;-59
2023/02/15 10:32:16;;;;;;;0.25;0.25;;;;;;;5.63;100.00;101977.00;4999531;28;20081;-59
2023/02/15 10:35:11;;;;;;;1.85;1.75;;;;;;;5.81;100.00;101964.69;4994045;28;20118;-58
2023/02/15 10:37:45;;;;;;;0.28;0.28;;;;;;;5.91;100.00;101959.22;4960949;28;20078;-57
2023/02/15 10:40:31;;;;;;;0.35;0.35;;;;;;;5.87;99.37;101963.56;4967836;28;20422;-57
2023/02/15 10:43:34;;;;;;;0.32;0.32;;;;;;;6.01;98.38;101961.75;4963868;28;20039;-59
2023/02/15 10:46:21;;;;;;;0.20;0.20;;;;;;;5.90;98.32;101960.31;4932532;28;20038;-59
2023/02/15 10:49:07;;;;;;;0.20;0.20;;;;;;;6.14;98.81;101964.47;4963798;28;20047;-59
2023/02/15 10:52:03;;;;;;;0.43;0.43;;;;;;;6.09;97.68;101950.38;4964301;28;20560;-58
2023/02/15 10:54:37;;;;;;;0.20;0.20;;;;;;;5.94;98.33;101955.97;4953362;28;20042;-59
2023/02/15 10:57:40;;;;;;;0.30;0.30;;;;;;;5.75;98.28;101950.59;4946371;28;20023;-59
2023/02/15 11:00:28;;;;;;;0.47;0.47;;;;;;;5.49;100.00;101946.72;4961338;28;20034;-58
2023/02/15 11:03:01;;;;;;;0.32;0.32;;;;;;;5.28;100.00;101956.09;4944185;28;20063;-57
2023/02/15 11:05:38;;;;;;;0.20;0.20;;;;;;;5.78;100.00;101965.28;4958101;28;20062;-58
2023/02/15 11:08:08;;;;;;;0.30;0.30;;;;;;;6.11;100.00;101958.91;4955563;28;20074;-58
2023/02/15 11:10:36;;;;;;;0.38;0.38;;;;;;;5.86;99.66;101956.63;4959947;28;20035;-59
2023/02/15 11:13:19;;;;;;;0.20;0.20;;;;;;;5.74;100.00;101956.25;4940738;28;20042;-59
2023/02/15 11:15:53;;;;;;;0.30;0.30;;;;;;;5.71;100.00;101949.59;5010630;28;20571;-59
2023/02/15 11:18:25;;;;;;;0.30;0.30;;;;;;;5.90;100.00;101945.09;5000639;28;20037;-58
2023/02/15 11:20:56;;;;;;;0.95;0.95;;;;;;;6.14;100.00;101943.06;4992840;28;20041;-59
2023/02/15 11:23:24;;;;;;;0.60;0.60;;;;;;;6.13;100.00;101944.16;4998590;28;20042;-58
2023/02/15 11:26:15;;;;;;;0.57;0.57;;;;;;;6.13;100.00;101933.47;4995728;28;20100;-59
2023/02/15 11:28:49;;;;;;;0.20;0.20;;;;;;;6.17;100.00;101928.34;4997591;28;20050;-58
2023/02/15 11:31:21;;;;;;;0.30;0.30;;;;;;;6.44;100.00;101927.59;4997758;28;20041;-59
2023/02/15 11:33:58;;;;;;;0.40;0.40;;;;;;;6.61;100.00;101923.25;5005102;28;20042;-59
2023/02/15 11:36:44;;;;;;;0.32;0.32;;;;;;;6.84;98.35;101924.94;5002313;28;20039;-59
2023/02/15 11:39:17;;;;;;;0.30;0.30;;;;;;;6.70;98.88;101921.47;4990950;28;20038;-59
2023/02/15 11:41:51;;;;;;;0.30;0.30;;;;;;;6.91;98.49;101903.13;5001818;28;20033;-59
2023/02/15 11:44:29;;;;;;;0.57;0.57;;;;;;;7.02;98.68;101899.16;4991835;28;20103;-59
2023/02/15 11:46:56;;;;;;;0.63;0.63;;;;;;;7.10;98.56;101901.13;5001821;28;20653;-59
2023/02/15 11:49:30;;;;;;;0.45;0.45;;;;;;;7.18;98.89;101890.47;5001284;28;20092;-59
2023/02/15 11:51:57;;;;;;;0.45;0.45;;;;;;;7.27;97.35;101894.03;4999416;28;20030;-59
2023/02/15 11:54:35;;;;;;;0.40;0.40;;;;;;;7.17;98.02;101891.59;4996658;28;20256;-60
2023/02/15 11:57:38;;;;;;;0.30;0.30;;;;;;;7.39;96.41;101898.06;4999600;28;20030;-58
2023/02/15 12:00:22;;;;;;;0.22;0.22;;;;;;;7.44;96.07;101895.28;4990326;28;20402;-59
2023/02/15 12:02:53;;;;;;;0.40;0.40;;;;;;;7.48;96.16;101891.69;5001542;28;20073;-59